Samskip Ice — C6SO4 — position and weather

sailwx.info

Track history (hours):
 
Tides and Currents Weather Stations Pressure Air Temp Water Temp Dewpoint Dewpoint Depression Visibility Wind Speed Wind Dir Waves Ship Positions

Samskip Ice

Last reported at 2018-Apr-23 08:15 UTC. Time now 2018-Apr-23 21:13 UTC.
Position N 55°40' E 019°38'.

Length 86 m; draft 6 m.

Type: Cargo ship. MMSI: 311411000.

Date/timePositionNaut miles runAvg speedWind from/ knotsBaromVisibWave heightAir tempDewpointWater temp
2018-Apr-23 08:15N 55°40' E 019°38'311.8
2018-Apr-23 07:59N 55°40' E 019°32'611.8
2018-Apr-23 07:29N 55°39' E 019°22'611.8
2018-Apr-23 06:57N 55°39' E 019°11'811.9
2018-Apr-23 06:14N 55°38' E 018°56'311.9
2018-Apr-23 06:00N 55°37' E 018°51'611.9
2018-Apr-23 05:30N 55°37' E 018°41'611.9
2018-Apr-23 05:00N 55°36' E 018°30'611.9
2018-Apr-23 04:29N 55°36' E 018°19'611.8
2018-Apr-23 03:59N 55°35' E 018°09'611.9
2018-Apr-23 03:30N 55°34' E 017°59'611.9
2018-Apr-23 02:59N 55°34' E 017°48'611.9
2018-Apr-23 02:30N 55°33' E 017°38'611.8
2018-Apr-23 01:59N 55°33' E 017°27'611.8
2018-Apr-23 01:30N 55°32' E 017°17'611.8
2018-Apr-23 01:00N 55°32' E 017°07'611.8
2018-Apr-23 00:30N 55°31' E 016°56'711.8
2018-Apr-22 23:54N 55°31' E 016°44'511.8
2018-Apr-22 23:30N 55°30' E 016°36'611.9
2018-Apr-22 23:00N 55°29' E 016°25'812.0
2018-Apr-22 22:19N 55°28' E 016°11'612.2
2018-Apr-22 21:48N 55°28' E 015°60'312.2
2018-Apr-22 21:30N 55°27' E 015°53'612.1
2018-Apr-22 21:00N 55°27' E 015°43'612.0
2018-Apr-22 20:30N 55°26' E 015°32'612.1
2018-Apr-22 20:00N 55°26' E 015°22'612.0
2018-Apr-22 19:30N 55°25' E 015°11'612.1
2018-Apr-22 19:00N 55°25' E 015°00'612.4
2018-Apr-22 18:30N 55°24' E 014°50'612.0
2018-Apr-22 18:00N 55°23' E 014°39'612.1
2018-Apr-22 17:30N 55°19' E 014°32'612.3
2018-Apr-22 16:59N 55°14' E 014°24'611.6
2018-Apr-22 16:30N 55°10' E 014°16'4711.9
2018-Apr-22 12:32N 55°15' E 012°54'012.0
2018-Apr-22 12:30N 55°15' E 012°54'611.7
2018-Apr-22 12:00N 55°17' E 012°44'5 9.8
2018-Apr-22 11:30N 55°20' E 012°38'611.2
2018-Apr-22 11:00N 55°26' E 012°40'510.3
2018-Apr-22 10:30N 55°31' E 012°41'4 8.6
2018-Apr-22 10:00N 55°35' E 012°42'4 7.9
2018-Apr-22 09:30N 55°39' E 012°41'4 8.6
2018-Apr-22 09:00N 55°43' E 012°41'611.7
2018-Apr-22 08:30N 55°49' E 012°42'611.9
2018-Apr-22 08:00N 55°54' E 012°38'612.3
2018-Apr-22 07:30N 56°01' E 012°38'510.7
2018-Apr-22 07:00N 56°05' E 012°34'4511.5
2018-Apr-22 03:07N 56°44' E 011°52'1112.3
2018-Apr-22 02:12N 56°54' E 011°46'212.2
2018-Apr-22 02:00N 56°57' E 011°44'712.2
2018-Apr-22 01:25N 57°03' E 011°40'912.3
2018-Apr-22 00:40N 57°12' E 011°34'212.5
2018-Apr-22 00:30N 57°14' E 011°33'612.6
2018-Apr-22 00:00N 57°20' E 011°29'612.8
2018-Apr-21 23:30N 57°26' E 011°25'612.1
2018-Apr-21 23:00N 57°30' E 011°18'612.5
2018-Apr-21 22:30N 57°35' E 011°09'612.8
2018-Apr-21 22:00N 57°38' E 010°59'612.6
2018-Apr-21 21:30N 57°43' E 010°51'612.9
2018-Apr-21 21:00N 57°46' E 010°41'613.1
2018-Apr-21 20:30N 57°47' E 010°29'612.6
2018-Apr-21 20:00N 57°47' E 010°17'713.1
2018-Apr-21 19:30N 57°47' E 010°05'1913.3
2018-Apr-21 18:07N 57°49' E 009°30'3612.3
2018-Apr-21 15:12N 57°52' E 008°23'212.0
2018-Apr-21 15:00N 57°52' E 008°19'612.0
2018-Apr-21 14:30N 57°52' E 008°07'612.1
2018-Apr-21 13:59N 57°53' E 007°56'612.2
2018-Apr-21 13:30N 57°53' E 007°45'612.2
2018-Apr-21 13:00N 57°53' E 007°33'612.3
2018-Apr-21 12:30N 57°54' E 007°21'612.7
2018-Apr-21 12:00N 57°55' E 007°10'612.7
2018-Apr-21 11:30N 57°55' E 006°58'612.5
2018-Apr-21 11:00N 57°57' E 006°47'713.1
2018-Apr-21 10:30N 58°00' E 006°36'612.9
2018-Apr-21 10:00N 58°04' E 006°26'612.6
2018-Apr-21 09:30N 58°08' E 006°16'612.0
2018-Apr-21 09:00N 58°12' E 006°08'611.4
2018-Apr-21 08:30N 58°16' E 006°00'611.6
2018-Apr-21 08:00N 58°21' E 005°53'611.8
2018-Apr-21 07:30N 58°25' E 005°45'612.3
2018-Apr-21 07:00N 58°29' E 005°37'713.5
2018-Apr-21 06:30N 58°35' E 005°29'713.7
2018-Apr-21 05:59N 58°41' E 005°22'612.7
2018-Apr-21 05:30N 58°46' E 005°15'612.1
2018-Apr-21 05:00N 58°51' E 005°09'611.7
2018-Apr-21 04:31N 58°56' E 005°03'612.0
2018-Apr-21 04:00N 59°01' E 004°56'11412.1
2018-Apr-20 18:37N 60°53' E 004°16'111.0
2018-Apr-20 18:30N 60°54' E 004°16'510.8
2018-Apr-20 18:00N 60°59' E 004°16'510.5
2018-Apr-20 17:30N 61°04' E 004°17'510.5
2018-Apr-20 17:00N 61°10' E 004°18'510.8
2018-Apr-20 16:30N 61°15' E 004°19'611.2
2018-Apr-20 16:00N 61°21' E 004°20'511.1
2018-Apr-20 15:30N 61°26' E 004°21'510.7
2018-Apr-20 15:00N 61°31' E 004°23'610.8
2018-Apr-20 14:29N 61°37' E 004°25'510.1
2018-Apr-20 13:59N 61°41' E 004°30'510.8
2018-Apr-20 13:30N 61°42' E 004°41'510.6
2018-Apr-20 13:00N 61°43' E 004°52'610.7
2018-Apr-20 12:29N 61°47' E 005°01'611.9
2018-Apr-20 11:59N 61°49' E 005°12'3 6.4
2018-Apr-20 11:30N 61°53' E 005°11'4 8.1
2018-Apr-20 11:00N 61°56' E 005°08'0 0.0
2018-Apr-20 10:29N 61°56' E 005°08'0 0.0
2018-Apr-20 09:59N 61°56' E 005°08'0 0.0
2018-Apr-20 09:29N 61°56' E 005°08'0 0.0
2018-Apr-20 08:59N 61°56' E 005°08'0 0.0
2018-Apr-20 08:29N 61°56' E 005°08'0 0.0
2018-Apr-20 07:59N 61°56' E 005°08'0 0.0
2018-Apr-20 07:29N 61°56' E 005°08'3 6.8
2018-Apr-20 06:59N 61°60' E 005°10'611.9
2018-Apr-20 06:30N 62°05' E 005°06'611.1
2018-Apr-20 06:00N 62°10' E 005°02'510.2
2018-Apr-20 05:30N 62°14' E 005°10'611.4
2018-Apr-20 05:00N 62°17' E 005°21'611.3
2018-Apr-20 04:30N 62°18' E 005°32'611.4
2018-Apr-20 04:00N 62°19' E 005°45'510.8
2018-Apr-20 03:30N 62°24' E 005°50'611.2
2018-Apr-20 03:00N 62°27' E 006°00'510.3
2018-Apr-20 02:30N 62°30' E 006°09'611.2
2018-Apr-20 01:59N 62°35' E 006°15'510.8
2018-Apr-20 01:30N 62°38' E 006°25'611.4
2018-Apr-20 01:00N 62°39' E 006°37'611.4
2018-Apr-20 00:30N 62°41' E 006°49'510.4
2018-Apr-19 23:59N 62°45' E 006°57'612.0
2018-Apr-19 23:30N 62°50' E 006°58'3 5.5
2018-Apr-19 22:58N 62°53' E 006°58'0 0.0
2018-Apr-19 22:28N 62°53' E 006°58'0 0.0
2018-Apr-19 21:58N 62°53' E 006°58'0 0.0
2018-Apr-19 21:28N 62°53' E 006°58'0 0.0
2018-Apr-19 20:58N 62°53' E 006°58'1 1.5
2018-Apr-19 20:30N 62°53' E 006°56'4 8.8
2018-Apr-19 20:00N 62°48' E 006°58'611.6
2018-Apr-19 19:30N 62°43' E 006°57'611.5
2018-Apr-19 19:00N 62°40' E 006°46'611.9
2018-Apr-19 18:30N 62°38' E 006°34'612.1
2018-Apr-19 18:00N 62°37' E 006°20'611.8
2018-Apr-19 17:30N 62°33' E 006°11'611.4
2018-Apr-19 17:00N 62°28' E 006°05'510.9
2018-Apr-19 16:30N 62°23' E 006°05'2 3.4
2018-Apr-19 15:58N 62°21' E 006°05'0 0.0
2018-Apr-19 15:28N 62°21' E 006°05'0 0.0
2018-Apr-19 14:55N 62°21' E 006°05'0 0.0
2018-Apr-19 14:25N 62°21' E 006°05'0 0.0
2018-Apr-19 13:55N 62°21' E 006°05'0 0.0
2018-Apr-19 13:25N 62°21' E 006°05'0 0.0
2018-Apr-19 12:55N 62°21' E 006°05'0 0.0
2018-Apr-19 12:28N 62°21' E 006°05'0 0.0
2018-Apr-19 11:55N 62°21' E 006°05'1 3.0
2018-Apr-19 11:30N 62°22' E 006°06'510.7
2018-Apr-19 11:00N 62°28' E 006°03'2 4.5
2018-Apr-19 10:30N 62°28' E 006°08'0 0.0
2018-Apr-19 10:00N 62°28' E 006°08'0 0.0
2018-Apr-19 09:30N 62°28' E 006°08'0 0.0
2018-Apr-19 08:59N 62°28' E 006°08'0 0.0
2018-Apr-19 08:29N 62°28' E 006°08'0 0.0
2018-Apr-19 07:59N 62°28' E 006°08'0 0.0
2018-Apr-19 07:29N 62°28' E 006°08'0 0.3
2018-Apr-19 07:00N 62°28' E 006°08'4 7.0
2018-Apr-19 06:30N 62°27' E 006°01'4 8.6
2018-Apr-19 05:59N 62°28' E 005°51'611.8
2018-Apr-19 05:30N 62°31' E 005°41'511.0
2018-Apr-19 05:00N 62°37' E 005°41'611.0
2018-Apr-19 04:30N 62°41' E 005°48'611.1
2018-Apr-19 04:00N 62°46' E 005°55'611.1
2018-Apr-19 03:30N 62°50' E 006°02'510.8
2018-Apr-19 03:00N 62°55' E 006°09'510.8
2018-Apr-19 02:30N 62°59' E 006°16'611.0
2018-Apr-19 02:00N 63°03' E 006°24'510.9
2018-Apr-19 01:30N 63°07' E 006°32'611.3
2018-Apr-19 01:00N 63°12' E 006°39'611.3
2018-Apr-19 00:30N 63°16' E 006°47'611.3
2018-Apr-18 23:59N 63°21' E 006°54'510.8
2018-Apr-18 23:29N 63°25' E 007°02'188 9.7
2018-Apr-18 04:13N 66°03' E 010°59'211.9
2018-Apr-18 04:00N 66°05' E 011°02'611.3
2018-Apr-18 03:30N 66°10' E 011°09'611.3
2018-Apr-18 03:00N 66°15' E 011°18'611.6
2018-Apr-18 02:27N 66°20' E 011°26'511.7
2018-Apr-18 02:00N 66°24' E 011°33'611.3
2018-Apr-18 01:28N 66°29' E 011°42'511.3
2018-Apr-18 01:00N 66°34' E 011°48'611.4
2018-Apr-18 00:31N 66°39' E 011°56'611.3
2018-Apr-17 23:59N 66°43' E 012°06'511.6
2018-Apr-17 23:31N 66°47' E 012°15'611.8
2018-Apr-17 23:00N 66°52' E 012°25'611.7
2018-Apr-17 22:30N 66°56' E 012°35'611.2
2018-Apr-17 22:00N 66°60' E 012°47'611.8
2018-Apr-17 21:29N 67°03' E 012°59'611.7
2018-Apr-17 21:00N 67°06' E 013°11'611.9
2018-Apr-17 20:30N 67°10' E 013°24'611.5
2018-Apr-17 20:00N 67°13' E 013°36'2 3.3
2018-Apr-17 19:30N 67°15' E 013°36'611.5
2018-Apr-17 19:01N 67°18' E 013°24'612.6
2018-Apr-17 18:30N 67°23' E 013°14'612.5
2018-Apr-17 18:00N 67°28' E 013°04'612.3
2018-Apr-17 17:30N 67°33' E 012°55'612.1
2018-Apr-17 16:59N 67°38' E 012°45'2 4.4
2018-Apr-17 16:29N 67°39' E 012°42'0 0.0
2018-Apr-17 15:59N 67°39' E 012°42'0 0.0
2018-Apr-17 15:29N 67°39' E 012°42'0 0.0
2018-Apr-17 14:59N 67°39' E 012°42'0 0.0
2018-Apr-17 14:29N 67°39' E 012°42'0 0.0
2018-Apr-17 13:59N 67°39' E 012°42'0 0.0
2018-Apr-17 13:29N 67°39' E 012°42'0 0.0
2018-Apr-17 12:59N 67°39' E 012°42'0 0.0
2018-Apr-17 12:29N 67°39' E 012°42'0 0.0
2018-Apr-17 11:59N 67°39' E 012°42'0 0.0
2018-Apr-17 11:29N 67°39' E 012°42'0 0.0
2018-Apr-17 10:59N 67°39' E 012°42'0 0.0
2018-Apr-17 10:29N 67°39' E 012°42'0 0.0
2018-Apr-17 09:59N 67°39' E 012°42'0 0.0
2018-Apr-17 09:29N 67°39' E 012°42'0 0.0
2018-Apr-17 08:59N 67°39' E 012°42'0 0.0
2018-Apr-17 08:29N 67°39' E 012°42'0 0.0
2018-Apr-17 07:59N 67°39' E 012°42'0 0.0
2018-Apr-17 07:29N 67°39' E 012°42'0 0.0
2018-Apr-17 06:59N 67°39' E 012°42'0 0.0
2018-Apr-17 06:29N 67°39' E 012°42'1 2.8
2018-Apr-17 06:00N 67°39' E 012°45'510.6
2018-Apr-17 05:30N 67°41' E 012°57'510.6
2018-Apr-17 05:00N 67°44' E 013°09'510.9
2018-Apr-17 04:30N 67°46' E 013°22'611.1
2018-Apr-17 04:00N 67°49' E 013°35'511.1
2018-Apr-17 03:30N 67°51' E 013°48'611.1
2018-Apr-17 03:00N 67°54' E 014°01'511.0
2018-Apr-17 02:30N 67°57' E 014°13'611.1
2018-Apr-17 01:59N 67°59' E 014°27'511.2
2018-Apr-17 01:30N 68°02' E 014°40'611.1
2018-Apr-17 01:00N 68°05' E 014°53'610.9
2018-Apr-17 00:29N 68°07' E 015°06'510.9
2018-Apr-17 00:00N 68°10' E 015°19'510.9
2018-Apr-16 23:30N 68°12' E 015°32'510.9
2018-Apr-16 23:00N 68°15' E 015°44'611.0
2018-Apr-16 22:30N 68°20' E 015°54'510.8
2018-Apr-16 22:00N 68°24' E 016°01'510.1
2018-Apr-16 21:30N 68°29' E 016°07'511.0
2018-Apr-16 21:00N 68°33' E 016°15'510.6
2018-Apr-16 20:30N 68°34' E 016°30'612.0
2018-Apr-16 20:00N 68°39' E 016°37'712.7
2018-Apr-16 19:30N 68°45' E 016°43'612.9
2018-Apr-16 19:00N 68°51' E 016°45'612.7
2018-Apr-16 18:29N 68°58' E 016°47'612.7
2018-Apr-16 18:00N 69°04' E 016°45'612.5
2018-Apr-16 17:30N 69°10' E 016°50'612.3
2018-Apr-16 16:59N 69°16' E 016°53'612.5
2018-Apr-16 16:29N 69°22' E 016°50'611.9
2018-Apr-16 16:00N 69°28' E 016°50'612.5
2018-Apr-16 15:30N 69°32' E 017°03'611.4
2018-Apr-16 15:00N 69°33' E 017°20'5 9.4
2018-Apr-16 14:30N 69°30' E 017°29'0 0.2
2018-Apr-16 14:00N 69°30' E 017°29'0 0.0
2018-Apr-16 13:30N 69°30' E 017°29'0 0.0
2018-Apr-16 12:57N 69°30' E 017°29'0 0.0
2018-Apr-16 12:24N 69°30' E 017°29'0 0.0
2018-Apr-16 12:00N 69°30' E 017°29'0 0.0
2018-Apr-16 11:30N 69°30' E 017°29'0 0.0
2018-Apr-16 11:00N 69°30' E 017°29'0 0.0
2018-Apr-16 10:30N 69°30' E 017°29'0 0.0
2018-Apr-16 10:00N 69°30' E 017°29'0 0.0
2018-Apr-16 09:30N 69°30' E 017°29'0 0.0
2018-Apr-16 08:57N 69°30' E 017°29'0 0.0
2018-Apr-16 08:30N 69°30' E 017°29'0 0.0
2018-Apr-16 08:00N 69°30' E 017°29'0 0.0
2018-Apr-16 07:30N 69°30' E 017°29'0 0.0
2018-Apr-16 07:00N 69°30' E 017°29'0 0.0
2018-Apr-16 06:30N 69°30' E 017°29'0 0.0
2018-Apr-16 06:00N 69°30' E 017°29'0 0.0
2018-Apr-16 05:27N 69°30' E 017°29'0 0.0
2018-Apr-16 05:00N 69°30' E 017°29'0 0.0
2018-Apr-16 04:30N 69°30' E 017°29'0 0.0
2018-Apr-16 04:00N 69°30' E 017°29'0 0.0
2018-Apr-16 03:27N 69°30' E 017°29'0 0.0
2018-Apr-16 03:00N 69°30' E 017°29'0 0.0
2018-Apr-16 02:30N 69°30' E 017°29'0 0.0
2018-Apr-16 02:00N 69°30' E 017°29'0 0.0
2018-Apr-16 01:30N 69°30' E 017°29'0 0.0
2018-Apr-16 01:00N 69°30' E 017°29'0 0.0
2018-Apr-16 00:24N 69°30' E 017°29'0 0.0
2018-Apr-16 00:00N 69°30' E 017°29'0 0.0
2018-Apr-15 23:27N 69°30' E 017°29'0 0.0
2018-Apr-15 23:00N 69°30' E 017°29'0 0.0
2018-Apr-15 22:30N 69°30' E 017°29'0 0.0
2018-Apr-15 21:57N 69°30' E 017°29'0 0.0
2018-Apr-15 21:30N 69°30' E 017°29'0 0.0
2018-Apr-15 21:00N 69°30' E 017°29'0 0.0
2018-Apr-15 20:24N 69°30' E 017°29'0 0.0
2018-Apr-15 20:00N 69°30' E 017°29'0 0.0
2018-Apr-15 19:30N 69°30' E 017°29'0 0.0
2018-Apr-15 19:00N 69°30' E 017°29'0 0.0
2018-Apr-15 18:30N 69°30' E 017°29'0 0.0
2018-Apr-15 18:00N 69°30' E 017°29'0 0.0
2018-Apr-15 17:27N 69°30' E 017°29'0 0.0
2018-Apr-15 17:00N 69°30' E 017°29'0 0.0
2018-Apr-15 16:27N 69°30' E 017°29'0 0.0
2018-Apr-15 16:00N 69°30' E 017°29'0 0.0
2018-Apr-15 15:30N 69°30' E 017°29'0 0.0
2018-Apr-15 14:57N 69°30' E 017°29'0 0.0
2018-Apr-15 14:30N 69°30' E 017°29'0 0.0
2018-Apr-15 14:00N 69°30' E 017°29'0 0.0
2018-Apr-15 13:30N 69°30' E 017°29'0 0.0
2018-Apr-15 13:00N 69°30' E 017°29'0 0.0
2018-Apr-15 12:30N 69°30' E 017°29'0 0.0
2018-Apr-15 12:00N 69°30' E 017°29'0 0.0
2018-Apr-15 11:30N 69°30' E 017°29'0 0.0
2018-Apr-15 11:00N 69°30' E 017°29'0 0.0
2018-Apr-15 10:30N 69°30' E 017°29'0 0.0
2018-Apr-15 10:00N 69°30' E 017°29'0 0.0
2018-Apr-15 09:30N 69°30' E 017°29'0 0.0
2018-Apr-15 09:00N 69°30' E 017°29'0 0.2
2018-Apr-15 08:30N 69°30' E 017°29'3 6.6
2018-Apr-15 08:00N 69°33' E 017°28'612.1
2018-Apr-15 07:30N 69°39' E 017°29'611.5
2018-Apr-15 07:00N 69°40' E 017°45'4 7.9
2018-Apr-15 06:30N 69°36' E 017°52'5 9.5
2018-Apr-15 06:00N 69°41' E 017°46'5 9.5
2018-Apr-15 05:30N 69°44' E 017°35'510.1
2018-Apr-15 04:59N 69°47' E 017°23'5 9.4
2018-Apr-15 04:30N 69°49' E 017°11'5 9.8
2018-Apr-15 03:59N 69°49' E 016°57'510.1
2018-Apr-15 03:30N 69°50' E 016°43'5 9.5
2018-Apr-15 03:00N 69°48' E 016°29'510.6
2018-Apr-15 02:30N 69°45' E 016°17'610.9
2018-Apr-15 02:00N 69°42' E 016°03'510.5
2018-Apr-15 01:30N 69°39' E 015°51'510.0
2018-Apr-15 01:00N 69°36' E 015°40'510.0
2018-Apr-15 00:30N 69°33' E 015°30'5 9.7
2018-Apr-15 00:00N 69°29' E 015°20'510.0
2018-Apr-14 23:30N 69°25' E 015°11'510.3
2018-Apr-14 23:00N 69°21' E 015°03'510.4
2018-Apr-14 22:30N 69°17' E 014°55'510.6
2018-Apr-14 22:00N 69°12' E 014°47'610.4
2018-Apr-14 21:29N 69°07' E 014°39'510.3
2018-Apr-14 21:00N 69°04' E 014°30'510.6
2018-Apr-14 20:30N 68°59' E 014°22'510.1
2018-Apr-14 19:58N 68°55' E 014°13'5 9.8
2018-Apr-14 19:30N 68°51' E 014°06'5 9.7
2018-Apr-14 19:00N 68°47' E 013°57'3 5.1
2018-Apr-14 18:29N 68°45' E 013°54'510.0
2018-Apr-14 18:00N 68°41' E 013°46'5 9.8
2018-Apr-14 17:29N 68°37' E 013°38'5 9.9
2018-Apr-14 17:00N 68°33' E 013°31'5 9.9
2018-Apr-14 16:30N 68°29' E 013°23'510.0
2018-Apr-14 16:00N 68°25' E 013°15'510.3
2018-Apr-14 15:30N 68°21' E 013°07'510.6
2018-Apr-14 15:00N 68°16' E 012°59'510.2
2018-Apr-14 14:29N 68°12' E 012°51'510.3
2018-Apr-14 14:00N 68°08' E 012°43'510.2
2018-Apr-14 13:30N 68°04' E 012°35'510.8
2018-Apr-14 12:59N 67°59' E 012°28'510.7
2018-Apr-14 12:30N 67°54' E 012°21'128 9.4
2018-Apr-13 22:55N 66°02' E 009°45'410.0
2018-Apr-13 22:30N 65°58' E 009°41'510.2
2018-Apr-13 21:59N 65°53' E 009°36'  
Track history (hours):
 
Tides and Currents Weather Stations Pressure Air Temp Water Temp Dewpoint Dewpoint Depression Visibility Wind Speed Wind Dir Waves Ship Positions

Samskip Ice

Last reported at 2018-Apr-23 08:15 UTC. Time now 2018-Apr-23 21:13 UTC.
Position N 55°40' E 019°38'.

Length 86 m; draft 6 m.

Type: Cargo ship. MMSI: 311411000.

Date/timePositionNaut miles runAvg speedWind from/ knotsBaromVisibWave heightAir tempDewpointWater temp
2018-Apr-23 08:15N 55°40' E 019°38'311.8
2018-Apr-23 07:59N 55°40' E 019°32'611.8
2018-Apr-23 07:29N 55°39' E 019°22'611.8
2018-Apr-23 06:57N 55°39' E 019°11'811.9
2018-Apr-23 06:14N 55°38' E 018°56'311.9
2018-Apr-23 06:00N 55°37' E 018°51'611.9
2018-Apr-23 05:30N 55°37' E 018°41'611.9
2018-Apr-23 05:00N 55°36' E 018°30'611.9
2018-Apr-23 04:29N 55°36' E 018°19'611.8
2018-Apr-23 03:59N 55°35' E 018°09'611.9
2018-Apr-23 03:30N 55°34' E 017°59'611.9
2018-Apr-23 02:59N 55°34' E 017°48'611.9
2018-Apr-23 02:30N 55°33' E 017°38'611.8
2018-Apr-23 01:59N 55°33' E 017°27'611.8
2018-Apr-23 01:30N 55°32' E 017°17'611.8
2018-Apr-23 01:00N 55°32' E 017°07'611.8
2018-Apr-23 00:30N 55°31' E 016°56'711.8
2018-Apr-22 23:54N 55°31' E 016°44'511.8
2018-Apr-22 23:30N 55°30' E 016°36'611.9
2018-Apr-22 23:00N 55°29' E 016°25'812.0
2018-Apr-22 22:19N 55°28' E 016°11'612.2
2018-Apr-22 21:48N 55°28' E 015°60'312.2
2018-Apr-22 21:30N 55°27' E 015°53'612.1
2018-Apr-22 21:00N 55°27' E 015°43'612.0
2018-Apr-22 20:30N 55°26' E 015°32'612.1
2018-Apr-22 20:00N 55°26' E 015°22'612.0
2018-Apr-22 19:30N 55°25' E 015°11'612.1
2018-Apr-22 19:00N 55°25' E 015°00'612.4
2018-Apr-22 18:30N 55°24' E 014°50'612.0
2018-Apr-22 18:00N 55°23' E 014°39'612.1
2018-Apr-22 17:30N 55°19' E 014°32'612.3
2018-Apr-22 16:59N 55°14' E 014°24'611.6
2018-Apr-22 16:30N 55°10' E 014°16'4711.9
2018-Apr-22 12:32N 55°15' E 012°54'012.0
2018-Apr-22 12:30N 55°15' E 012°54'611.7
2018-Apr-22 12:00N 55°17' E 012°44'5 9.8
2018-Apr-22 11:30N 55°20' E 012°38'611.2
2018-Apr-22 11:00N 55°26' E 012°40'510.3
2018-Apr-22 10:30N 55°31' E 012°41'4 8.6
2018-Apr-22 10:00N 55°35' E 012°42'4 7.9
2018-Apr-22 09:30N 55°39' E 012°41'4 8.6
2018-Apr-22 09:00N 55°43' E 012°41'611.7
2018-Apr-22 08:30N 55°49' E 012°42'611.9
2018-Apr-22 08:00N 55°54' E 012°38'612.3
2018-Apr-22 07:30N 56°01' E 012°38'510.7
2018-Apr-22 07:00N 56°05' E 012°34'4511.5
2018-Apr-22 03:07N 56°44' E 011°52'1112.3
2018-Apr-22 02:12N 56°54' E 011°46'212.2
2018-Apr-22 02:00N 56°57' E 011°44'712.2
2018-Apr-22 01:25N 57°03' E 011°40'912.3
2018-Apr-22 00:40N 57°12' E 011°34'212.5
2018-Apr-22 00:30N 57°14' E 011°33'612.6
2018-Apr-22 00:00N 57°20' E 011°29'612.8
2018-Apr-21 23:30N 57°26' E 011°25'612.1
2018-Apr-21 23:00N 57°30' E 011°18'612.5
2018-Apr-21 22:30N 57°35' E 011°09'612.8
2018-Apr-21 22:00N 57°38' E 010°59'612.6
2018-Apr-21 21:30N 57°43' E 010°51'612.9
2018-Apr-21 21:00N 57°46' E 010°41'613.1
2018-Apr-21 20:30N 57°47' E 010°29'612.6
2018-Apr-21 20:00N 57°47' E 010°17'713.1
2018-Apr-21 19:30N 57°47' E 010°05'1913.3
2018-Apr-21 18:07N 57°49' E 009°30'3612.3
2018-Apr-21 15:12N 57°52' E 008°23'212.0
2018-Apr-21 15:00N 57°52' E 008°19'612.0
2018-Apr-21 14:30N 57°52' E 008°07'612.1
2018-Apr-21 13:59N 57°53' E 007°56'612.2
2018-Apr-21 13:30N 57°53' E 007°45'612.2
2018-Apr-21 13:00N 57°53' E 007°33'612.3
2018-Apr-21 12:30N 57°54' E 007°21'612.7
2018-Apr-21 12:00N 57°55' E 007°10'612.7
2018-Apr-21 11:30N 57°55' E 006°58'612.5
2018-Apr-21 11:00N 57°57' E 006°47'713.1
2018-Apr-21 10:30N 58°00' E 006°36'612.9
2018-Apr-21 10:00N 58°04' E 006°26'612.6
2018-Apr-21 09:30N 58°08' E 006°16'612.0
2018-Apr-21 09:00N 58°12' E 006°08'611.4
2018-Apr-21 08:30N 58°16' E 006°00'611.6
2018-Apr-21 08:00N 58°21' E 005°53'611.8
2018-Apr-21 07:30N 58°25' E 005°45'612.3
2018-Apr-21 07:00N 58°29' E 005°37'713.5
2018-Apr-21 06:30N 58°35' E 005°29'713.7
2018-Apr-21 05:59N 58°41' E 005°22'612.7
2018-Apr-21 05:30N 58°46' E 005°15'612.1
2018-Apr-21 05:00N 58°51' E 005°09'611.7
2018-Apr-21 04:31N 58°56' E 005°03'612.0
2018-Apr-21 04:00N 59°01' E 004°56'11412.1
2018-Apr-20 18:37N 60°53' E 004°16'111.0
2018-Apr-20 18:30N 60°54' E 004°16'510.8
2018-Apr-20 18:00N 60°59' E 004°16'510.5
2018-Apr-20 17:30N 61°04' E 004°17'510.5
2018-Apr-20 17:00N 61°10' E 004°18'510.8
2018-Apr-20 16:30N 61°15' E 004°19'611.2
2018-Apr-20 16:00N 61°21' E 004°20'511.1
2018-Apr-20 15:30N 61°26' E 004°21'510.7
2018-Apr-20 15:00N 61°31' E 004°23'610.8
2018-Apr-20 14:29N 61°37' E 004°25'510.1
2018-Apr-20 13:59N 61°41' E 004°30'510.8
2018-Apr-20 13:30N 61°42' E 004°41'510.6
2018-Apr-20 13:00N 61°43' E 004°52'610.7
2018-Apr-20 12:29N 61°47' E 005°01'611.9
2018-Apr-20 11:59N 61°49' E 005°12'3 6.4
2018-Apr-20 11:30N 61°53' E 005°11'4 8.1
2018-Apr-20 11:00N 61°56' E 005°08'0 0.0
2018-Apr-20 10:29N 61°56' E 005°08'0 0.0
2018-Apr-20 09:59N 61°56' E 005°08'0 0.0
2018-Apr-20 09:29N 61°56' E 005°08'0 0.0
2018-Apr-20 08:59N 61°56' E 005°08'0 0.0
2018-Apr-20 08:29N 61°56' E 005°08'0 0.0
2018-Apr-20 07:59N 61°56' E 005°08'0 0.0
2018-Apr-20 07:29N 61°56' E 005°08'3 6.8
2018-Apr-20 06:59N 61°60' E 005°10'611.9
2018-Apr-20 06:30N 62°05' E 005°06'611.1
2018-Apr-20 06:00N 62°10' E 005°02'510.2
2018-Apr-20 05:30N 62°14' E 005°10'611.4
2018-Apr-20 05:00N 62°17' E 005°21'611.3
2018-Apr-20 04:30N 62°18' E 005°32'611.4
2018-Apr-20 04:00N 62°19' E 005°45'510.8
2018-Apr-20 03:30N 62°24' E 005°50'611.2
2018-Apr-20 03:00N 62°27' E 006°00'510.3
2018-Apr-20 02:30N 62°30' E 006°09'611.2
2018-Apr-20 01:59N 62°35' E 006°15'510.8
2018-Apr-20 01:30N 62°38' E 006°25'611.4
2018-Apr-20 01:00N 62°39' E 006°37'611.4
2018-Apr-20 00:30N 62°41' E 006°49'510.4
2018-Apr-19 23:59N 62°45' E 006°57'612.0
2018-Apr-19 23:30N 62°50' E 006°58'3 5.5
2018-Apr-19 22:58N 62°53' E 006°58'0 0.0
2018-Apr-19 22:28N 62°53' E 006°58'0 0.0
2018-Apr-19 21:58N 62°53' E 006°58'0 0.0
2018-Apr-19 21:28N 62°53' E 006°58'0 0.0
2018-Apr-19 20:58N 62°53' E 006°58'1 1.5
2018-Apr-19 20:30N 62°53' E 006°56'4 8.8
2018-Apr-19 20:00N 62°48' E 006°58'611.6
2018-Apr-19 19:30N 62°43' E 006°57'611.5
2018-Apr-19 19:00N 62°40' E 006°46'611.9
2018-Apr-19 18:30N 62°38' E 006°34'612.1
2018-Apr-19 18:00N 62°37' E 006°20'611.8
2018-Apr-19 17:30N 62°33' E 006°11'611.4
2018-Apr-19 17:00N 62°28' E 006°05'510.9
2018-Apr-19 16:30N 62°23' E 006°05'2 3.4
2018-Apr-19 15:58N 62°21' E 006°05'0 0.0
2018-Apr-19 15:28N 62°21' E 006°05'0 0.0
2018-Apr-19 14:55N 62°21' E 006°05'0 0.0
2018-Apr-19 14:25N 62°21' E 006°05'0 0.0
2018-Apr-19 13:55N 62°21' E 006°05'0 0.0
2018-Apr-19 13:25N 62°21' E 006°05'0 0.0
2018-Apr-19 12:55N 62°21' E 006°05'0 0.0
2018-Apr-19 12:28N 62°21' E 006°05'0 0.0
2018-Apr-19 11:55N 62°21' E 006°05'1 3.0
2018-Apr-19 11:30N 62°22' E 006°06'510.7
2018-Apr-19 11:00N 62°28' E 006°03'2 4.5
2018-Apr-19 10:30N 62°28' E 006°08'0 0.0
2018-Apr-19 10:00N 62°28' E 006°08'0 0.0
2018-Apr-19 09:30N 62°28' E 006°08'0 0.0
2018-Apr-19 08:59N 62°28' E 006°08'0 0.0
2018-Apr-19 08:29N 62°28' E 006°08'0 0.0
2018-Apr-19 07:59N 62°28' E 006°08'0 0.0
2018-Apr-19 07:29N 62°28' E 006°08'0 0.3
2018-Apr-19 07:00N 62°28' E 006°08'4 7.0
2018-Apr-19 06:30N 62°27' E 006°01'4 8.6
2018-Apr-19 05:59N 62°28' E 005°51'611.8
2018-Apr-19 05:30N 62°31' E 005°41'511.0
2018-Apr-19 05:00N 62°37' E 005°41'611.0
2018-Apr-19 04:30N 62°41' E 005°48'611.1
2018-Apr-19 04:00N 62°46' E 005°55'611.1
2018-Apr-19 03:30N 62°50' E 006°02'510.8
2018-Apr-19 03:00N 62°55' E 006°09'510.8
2018-Apr-19 02:30N 62°59' E 006°16'611.0
2018-Apr-19 02:00N 63°03' E 006°24'510.9
2018-Apr-19 01:30N 63°07' E 006°32'611.3
2018-Apr-19 01:00N 63°12' E 006°39'611.3
2018-Apr-19 00:30N 63°16' E 006°47'611.3
2018-Apr-18 23:59N 63°21' E 006°54'510.8
2018-Apr-18 23:29N 63°25' E 007°02'188 9.7
2018-Apr-18 04:13N 66°03' E 010°59'211.9
2018-Apr-18 04:00N 66°05' E 011°02'611.3
2018-Apr-18 03:30N 66°10' E 011°09'611.3
2018-Apr-18 03:00N 66°15' E 011°18'611.6
2018-Apr-18 02:27N 66°20' E 011°26'511.7
2018-Apr-18 02:00N 66°24' E 011°33'611.3
2018-Apr-18 01:28N 66°29' E 011°42'511.3
2018-Apr-18 01:00N 66°34' E 011°48'611.4
2018-Apr-18 00:31N 66°39' E 011°56'611.3
2018-Apr-17 23:59N 66°43' E 012°06'511.6
2018-Apr-17 23:31N 66°47' E 012°15'611.8
2018-Apr-17 23:00N 66°52' E 012°25'611.7
2018-Apr-17 22:30N 66°56' E 012°35'611.2
2018-Apr-17 22:00N 66°60' E 012°47'611.8
2018-Apr-17 21:29N 67°03' E 012°59'611.7
2018-Apr-17 21:00N 67°06' E 013°11'611.9
2018-Apr-17 20:30N 67°10' E 013°24'611.5
2018-Apr-17 20:00N 67°13' E 013°36'2 3.3
2018-Apr-17 19:30N 67°15' E 013°36'611.5
2018-Apr-17 19:01N 67°18' E 013°24'612.6
2018-Apr-17 18:30N 67°23' E 013°14'612.5
2018-Apr-17 18:00N 67°28' E 013°04'612.3
2018-Apr-17 17:30N 67°33' E 012°55'612.1
2018-Apr-17 16:59N 67°38' E 012°45'2 4.4
2018-Apr-17 16:29N 67°39' E 012°42'0 0.0
2018-Apr-17 15:59N 67°39' E 012°42'0 0.0
2018-Apr-17 15:29N 67°39' E 012°42'0 0.0
2018-Apr-17 14:59N 67°39' E 012°42'0 0.0
2018-Apr-17 14:29N 67°39' E 012°42'0 0.0
2018-Apr-17 13:59N 67°39' E 012°42'0 0.0
2018-Apr-17 13:29N 67°39' E 012°42'0 0.0
2018-Apr-17 12:59N 67°39' E 012°42'0 0.0
2018-Apr-17 12:29N 67°39' E 012°42'0 0.0
2018-Apr-17 11:59N 67°39' E 012°42'0 0.0
2018-Apr-17 11:29N 67°39' E 012°42'0 0.0
2018-Apr-17 10:59N 67°39' E 012°42'0 0.0
2018-Apr-17 10:29N 67°39' E 012°42'0 0.0
2018-Apr-17 09:59N 67°39' E 012°42'0 0.0
2018-Apr-17 09:29N 67°39' E 012°42'0 0.0
2018-Apr-17 08:59N 67°39' E 012°42'0 0.0
2018-Apr-17 08:29N 67°39' E 012°42'0 0.0
2018-Apr-17 07:59N 67°39' E 012°42'0 0.0
2018-Apr-17 07:29N 67°39' E 012°42'0 0.0
2018-Apr-17 06:59N 67°39' E 012°42'0 0.0
2018-Apr-17 06:29N 67°39' E 012°42'1 2.8
2018-Apr-17 06:00N 67°39' E 012°45'510.6
2018-Apr-17 05:30N 67°41' E 012°57'510.6
2018-Apr-17 05:00N 67°44' E 013°09'510.9
2018-Apr-17 04:30N 67°46' E 013°22'611.1
2018-Apr-17 04:00N 67°49' E 013°35'511.1
2018-Apr-17 03:30N 67°51' E 013°48'611.1
2018-Apr-17 03:00N 67°54' E 014°01'511.0
2018-Apr-17 02:30N 67°57' E 014°13'611.1
2018-Apr-17 01:59N 67°59' E 014°27'511.2
2018-Apr-17 01:30N 68°02' E 014°40'611.1
2018-Apr-17 01:00N 68°05' E 014°53'610.9
2018-Apr-17 00:29N 68°07' E 015°06'510.9
2018-Apr-17 00:00N 68°10' E 015°19'510.9
2018-Apr-16 23:30N 68°12' E 015°32'510.9
2018-Apr-16 23:00N 68°15' E 015°44'611.0
2018-Apr-16 22:30N 68°20' E 015°54'510.8
2018-Apr-16 22:00N 68°24' E 016°01'510.1
2018-Apr-16 21:30N 68°29' E 016°07'511.0
2018-Apr-16 21:00N 68°33' E 016°15'510.6
2018-Apr-16 20:30N 68°34' E 016°30'612.0
2018-Apr-16 20:00N 68°39' E 016°37'712.7
2018-Apr-16 19:30N 68°45' E 016°43'612.9
2018-Apr-16 19:00N 68°51' E 016°45'612.7
2018-Apr-16 18:29N 68°58' E 016°47'612.7
2018-Apr-16 18:00N 69°04' E 016°45'612.5
2018-Apr-16 17:30N 69°10' E 016°50'612.3
2018-Apr-16 16:59N 69°16' E 016°53'612.5
2018-Apr-16 16:29N 69°22' E 016°50'611.9
2018-Apr-16 16:00N 69°28' E 016°50'612.5
2018-Apr-16 15:30N 69°32' E 017°03'611.4
2018-Apr-16 15:00N 69°33' E 017°20'5 9.4
2018-Apr-16 14:30N 69°30' E 017°29'0 0.2
2018-Apr-16 14:00N 69°30' E 017°29'0 0.0
2018-Apr-16 13:30N 69°30' E 017°29'0 0.0
2018-Apr-16 12:57N 69°30' E 017°29'0 0.0
2018-Apr-16 12:24N 69°30' E 017°29'0 0.0
2018-Apr-16 12:00N 69°30' E 017°29'0 0.0
2018-Apr-16 11:30N 69°30' E 017°29'0 0.0
2018-Apr-16 11:00N 69°30' E 017°29'0 0.0
2018-Apr-16 10:30N 69°30' E 017°29'0 0.0
2018-Apr-16 10:00N 69°30' E 017°29'0 0.0
2018-Apr-16 09:30N 69°30' E 017°29'0 0.0
2018-Apr-16 08:57N 69°30' E 017°29'0 0.0
2018-Apr-16 08:30N 69°30' E 017°29'0 0.0
2018-Apr-16 08:00N 69°30' E 017°29'0 0.0
2018-Apr-16 07:30N 69°30' E 017°29'0 0.0
2018-Apr-16 07:00N 69°30' E 017°29'0 0.0
2018-Apr-16 06:30N 69°30' E 017°29'0 0.0
2018-Apr-16 06:00N 69°30' E 017°29'0 0.0
2018-Apr-16 05:27N 69°30' E 017°29'0 0.0
2018-Apr-16 05:00N 69°30' E 017°29'0 0.0
2018-Apr-16 04:30N 69°30' E 017°29'0 0.0
2018-Apr-16 04:00N 69°30' E 017°29'0 0.0
2018-Apr-16 03:27N 69°30' E 017°29'0 0.0
2018-Apr-16 03:00N 69°30' E 017°29'0 0.0
2018-Apr-16 02:30N 69°30' E 017°29'0 0.0
2018-Apr-16 02:00N 69°30' E 017°29'0 0.0
2018-Apr-16 01:30N 69°30' E 017°29'0 0.0
2018-Apr-16 01:00N 69°30' E 017°29'0 0.0
2018-Apr-16 00:24N 69°30' E 017°29'0 0.0
2018-Apr-16 00:00N 69°30' E 017°29'0 0.0
2018-Apr-15 23:27N 69°30' E 017°29'0 0.0
2018-Apr-15 23:00N 69°30' E 017°29'0 0.0
2018-Apr-15 22:30N 69°30' E 017°29'0 0.0
2018-Apr-15 21:57N 69°30' E 017°29'0 0.0
2018-Apr-15 21:30N 69°30' E 017°29'0 0.0
2018-Apr-15 21:00N 69°30' E 017°29'0 0.0
2018-Apr-15 20:24N 69°30' E 017°29'0 0.0
2018-Apr-15 20:00N 69°30' E 017°29'0 0.0
2018-Apr-15 19:30N 69°30' E 017°29'0 0.0
2018-Apr-15 19:00N 69°30' E 017°29'0 0.0
2018-Apr-15 18:30N 69°30' E 017°29'0 0.0
2018-Apr-15 18:00N 69°30' E 017°29'0 0.0
2018-Apr-15 17:27N 69°30' E 017°29'0 0.0
2018-Apr-15 17:00N 69°30' E 017°29'0 0.0
2018-Apr-15 16:27N 69°30' E 017°29'0 0.0
2018-Apr-15 16:00N 69°30' E 017°29'0 0.0
2018-Apr-15 15:30N 69°30' E 017°29'0 0.0
2018-Apr-15 14:57N 69°30' E 017°29'0 0.0
2018-Apr-15 14:30N 69°30' E 017°29'0 0.0
2018-Apr-15 14:00N 69°30' E 017°29'0 0.0
2018-Apr-15 13:30N 69°30' E 017°29'0 0.0
2018-Apr-15 13:00N 69°30' E 017°29'0 0.0
2018-Apr-15 12:30N 69°30' E 017°29'0 0.0
2018-Apr-15 12:00N 69°30' E 017°29'0 0.0
2018-Apr-15 11:30N 69°30' E 017°29'0 0.0
2018-Apr-15 11:00N 69°30' E 017°29'0 0.0
2018-Apr-15 10:30N 69°30' E 017°29'0 0.0
2018-Apr-15 10:00N 69°30' E 017°29'0 0.0
2018-Apr-15 09:30N 69°30' E 017°29'0 0.0
2018-Apr-15 09:00N 69°30' E 017°29'0 0.2
2018-Apr-15 08:30N 69°30' E 017°29'3 6.6
2018-Apr-15 08:00N 69°33' E 017°28'612.1
2018-Apr-15 07:30N 69°39' E 017°29'611.5
2018-Apr-15 07:00N 69°40' E 017°45'4 7.9
2018-Apr-15 06:30N 69°36' E 017°52'5 9.5
2018-Apr-15 06:00N 69°41' E 017°46'5 9.5
2018-Apr-15 05:30N 69°44' E 017°35'510.1
2018-Apr-15 04:59N 69°47' E 017°23'5 9.4
2018-Apr-15 04:30N 69°49' E 017°11'5 9.8
2018-Apr-15 03:59N 69°49' E 016°57'510.1
2018-Apr-15 03:30N 69°50' E 016°43'5 9.5
2018-Apr-15 03:00N 69°48' E 016°29'510.6
2018-Apr-15 02:30N 69°45' E 016°17'610.9
2018-Apr-15 02:00N 69°42' E 016°03'510.5
2018-Apr-15 01:30N 69°39' E 015°51'510.0
2018-Apr-15 01:00N 69°36' E 015°40'510.0
2018-Apr-15 00:30N 69°33' E 015°30'5 9.7
2018-Apr-15 00:00N 69°29' E 015°20'510.0
2018-Apr-14 23:30N 69°25' E 015°11'510.3
2018-Apr-14 23:00N 69°21' E 015°03'510.4
2018-Apr-14 22:30N 69°17' E 014°55'510.6
2018-Apr-14 22:00N 69°12' E 014°47'610.4
2018-Apr-14 21:29N 69°07' E 014°39'510.3
2018-Apr-14 21:00N 69°04' E 014°30'510.6
2018-Apr-14 20:30N 68°59' E 014°22'510.1
2018-Apr-14 19:58N 68°55' E 014°13'5 9.8
2018-Apr-14 19:30N 68°51' E 014°06'5 9.7
2018-Apr-14 19:00N 68°47' E 013°57'3 5.1
2018-Apr-14 18:29N 68°45' E 013°54'510.0
2018-Apr-14 18:00N 68°41' E 013°46'5 9.8
2018-Apr-14 17:29N 68°37' E 013°38'5 9.9
2018-Apr-14 17:00N 68°33' E 013°31'5 9.9
2018-Apr-14 16:30N 68°29' E 013°23'510.0
2018-Apr-14 16:00N 68°25' E 013°15'510.3
2018-Apr-14 15:30N 68°21' E 013°07'510.6
2018-Apr-14 15:00N 68°16' E 012°59'510.2
2018-Apr-14 14:29N 68°12' E 012°51'510.3
2018-Apr-14 14:00N 68°08' E 012°43'510.2
2018-Apr-14 13:30N 68°04' E 012°35'510.8
2018-Apr-14 12:59N 67°59' E 012°28'510.7
2018-Apr-14 12:30N 67°54' E 012°21'128 9.4
2018-Apr-13 22:55N 66°02' E 009°45'410.0
2018-Apr-13 22:30N 65°58' E 009°41'510.2
2018-Apr-13 21:59N 65°53' E 009°36'  

Dump ship's entire track history